sensor_id;sensor_type;location;lat;lon;timestamp;P1;durP1;ratioP1;P2;durP2;ratioP2
25153;SDS011;47555;51.038;6.280;2023-11-21T00:01:18;15.20;;;8.52;;
25153;SDS011;47555;51.038;6.280;2023-11-21T00:03:44;13.40;;;7.78;;
25153;SDS011;47555;51.038;6.280;2023-11-21T00:06:10;16.80;;;8.98;;
25153;SDS011;47555;51.038;6.280;2023-11-21T00:08:36;17.90;;;9.93;;
25153;SDS011;47555;51.038;6.280;2023-11-21T00:11:02;15.43;;;9.27;;
25153;SDS011;47555;51.038;6.280;2023-11-21T00:13:30;15.38;;;9.38;;
25153;SDS011;47555;51.038;6.280;2023-11-21T00:15:56;16.70;;;9.75;;
25153;SDS011;47555;51.038;6.280;2023-11-21T00:18:22;17.92;;;10.18;;
25153;SDS011;47555;51.038;6.280;2023-11-21T00:20:51;20.05;;;11.13;;
25153;SDS011;47555;51.038;6.280;2023-11-21T00:23:17;21.20;;;10.95;;
25153;SDS011;47555;51.038;6.280;2023-11-21T00:25:43;25.35;;;11.57;;
25153;SDS011;47555;51.038;6.280;2023-11-21T00:28:09;20.63;;;11.63;;
25153;SDS011;47555;51.038;6.280;2023-11-21T00:30:35;24.88;;;12.77;;
25153;SDS011;47555;51.038;6.280;2023-11-21T00:33:01;21.65;;;12.48;;
25153;SDS011;47555;51.038;6.280;2023-11-21T00:35:26;21.23;;;11.82;;
25153;SDS011;47555;51.038;6.280;2023-11-21T00:37:52;25.40;;;12.10;;
25153;SDS011;47555;51.038;6.280;2023-11-21T00:40:18;25.85;;;12.30;;
25153;SDS011;47555;51.038;6.280;2023-11-21T00:42:46;25.42;;;12.15;;
25153;SDS011;47555;51.038;6.280;2023-11-21T00:45:11;27.67;;;13.48;;
25153;SDS011;47555;51.038;6.280;2023-11-21T00:47:37;30.98;;;13.93;;
25153;SDS011;47555;51.038;6.280;2023-11-21T00:50:04;33.40;;;14.60;;
25153;SDS011;47555;51.038;6.280;2023-11-21T00:52:31;35.00;;;13.68;;
25153;SDS011;47555;51.038;6.280;2023-11-21T00:54:57;31.15;;;13.43;;
25153;SDS011;47555;51.038;6.280;2023-11-21T00:57:25;29.70;;;13.88;;
25153;SDS011;47555;51.038;6.280;2023-11-21T00:59:51;32.50;;;12.85;;
25153;SDS011;47555;51.038;6.280;2023-11-21T01:02:17;28.52;;;13.10;;
25153;SDS011;47555;51.038;6.280;2023-11-21T01:04:43;26.80;;;12.27;;
25153;SDS011;47555;51.038;6.280;2023-11-21T01:07:09;26.70;;;11.48;;
25153;SDS011;47555;51.038;6.280;2023-11-21T01:09:35;31.77;;;12.52;;
25153;SDS011;47555;51.038;6.280;2023-11-21T01:12:01;30.20;;;13.30;;
25153;SDS011;47555;51.038;6.280;2023-11-21T01:14:27;27.90;;;12.82;;
25153;SDS011;47555;51.038;6.280;2023-11-21T01:16:53;24.33;;;12.15;;
25153;SDS011;47555;51.038;6.280;2023-11-21T01:19:19;24.20;;;12.73;;
25153;SDS011;47555;51.038;6.280;2023-11-21T01:21:45;23.33;;;12.85;;
25153;SDS011;47555;51.038;6.280;2023-11-21T01:24:12;24.58;;;11.65;;
25153;SDS011;47555;51.038;6.280;2023-11-21T01:26:38;24.45;;;12.88;;
25153;SDS011;47555;51.038;6.280;2023-11-21T01:29:03;25.45;;;13.35;;
25153;SDS011;47555;51.038;6.280;2023-11-21T01:31:30;33.20;;;14.15;;
25153;SDS011;47555;51.038;6.280;2023-11-21T01:33:56;32.03;;;15.25;;
25153;SDS011;47555;51.038;6.280;2023-11-21T01:36:23;28.80;;;14.10;;
25153;SDS011;47555;51.038;6.280;2023-11-21T01:38:56;32.25;;;15.82;;
25153;SDS011;47555;51.038;6.280;2023-11-21T01:41:24;41.30;;;15.40;;
25153;SDS011;47555;51.038;6.280;2023-11-21T01:43:51;33.78;;;15.90;;
25153;SDS011;47555;51.038;6.280;2023-11-21T01:46:18;29.05;;;14.30;;
25153;SDS011;47555;51.038;6.280;2023-11-21T01:48:45;32.83;;;15.15;;
25153;SDS011;47555;51.038;6.280;2023-11-21T01:51:11;30.67;;;15.52;;
25153;SDS011;47555;51.038;6.280;2023-11-21T01:53:37;36.05;;;16.30;;
25153;SDS011;47555;51.038;6.280;2023-11-21T01:56:03;39.55;;;17.83;;
25153;SDS011;47555;51.038;6.280;2023-11-21T01:58:30;58.95;;;21.98;;
25153;SDS011;47555;51.038;6.280;2023-11-21T02:00:57;57.88;;;22.17;;
25153;SDS011;47555;51.038;6.280;2023-11-21T02:03:23;57.30;;;20.33;;
25153;SDS011;47555;51.038;6.280;2023-11-21T02:05:49;52.80;;;20.23;;
25153;SDS011;47555;51.038;6.280;2023-11-21T02:08:15;44.47;;;18.00;;
25153;SDS011;47555;51.038;6.280;2023-11-21T02:10:41;49.47;;;19.77;;
25153;SDS011;47555;51.038;6.280;2023-11-21T02:13:07;38.90;;;18.38;;
25153;SDS011;47555;51.038;6.280;2023-11-21T02:15:33;36.67;;;16.80;;
25153;SDS011;47555;51.038;6.280;2023-11-21T02:17:59;40.08;;;17.38;;
25153;SDS011;47555;51.038;6.280;2023-11-21T02:20:25;35.92;;;17.33;;
25153;SDS011;47555;51.038;6.280;2023-11-21T02:22:54;41.30;;;18.15;;
25153;SDS011;47555;51.038;6.280;2023-11-21T02:25:26;34.17;;;15.43;;
25153;SDS011;47555;51.038;6.280;2023-11-21T02:27:52;38.80;;;17.63;;
25153;SDS011;47555;51.038;6.280;2023-11-21T02:30:19;45.53;;;17.92;;
25153;SDS011;47555;51.038;6.280;2023-11-21T02:32:46;40.13;;;17.33;;
25153;SDS011;47555;51.038;6.280;2023-11-21T02:35:13;41.90;;;16.92;;
25153;SDS011;47555;51.038;6.280;2023-11-21T02:37:39;42.95;;;17.58;;
25153;SDS011;47555;51.038;6.280;2023-11-21T02:40:06;38.58;;;18.35;;
25153;SDS011;47555;51.038;6.280;2023-11-21T02:42:32;37.55;;;16.02;;
25153;SDS011;47555;51.038;6.280;2023-11-21T02:44:58;46.35;;;19.30;;
25153;SDS011;47555;51.038;6.280;2023-11-21T02:47:24;53.25;;;19.95;;
25153;SDS011;47555;51.038;6.280;2023-11-21T02:49:50;48.05;;;19.63;;
25153;SDS011;47555;51.038;6.280;2023-11-21T02:52:17;46.70;;;20.50;;
25153;SDS011;47555;51.038;6.280;2023-11-21T02:54:44;46.65;;;18.83;;
25153;SDS011;47555;51.038;6.280;2023-11-21T02:57:09;44.13;;;18.80;;
25153;SDS011;47555;51.038;6.280;2023-11-21T02:59:36;39.42;;;17.65;;
25153;SDS011;47555;51.038;6.280;2023-11-21T03:02:02;47.17;;;20.63;;
25153;SDS011;47555;51.038;6.280;2023-11-21T03:04:28;43.60;;;17.50;;
25153;SDS011;47555;51.038;6.280;2023-11-21T03:06:57;45.78;;;17.67;;
25153;SDS011;47555;51.038;6.280;2023-11-21T03:09:23;44.72;;;18.42;;
25153;SDS011;47555;51.038;6.280;2023-11-21T03:11:49;46.13;;;19.83;;
25153;SDS011;47555;51.038;6.280;2023-11-21T03:14:15;43.05;;;18.15;;
25153;SDS011;47555;51.038;6.280;2023-11-21T03:16:41;48.55;;;19.00;;
25153;SDS011;47555;51.038;6.280;2023-11-21T03:19:07;43.05;;;17.27;;
25153;SDS011;47555;51.038;6.280;2023-11-21T03:21:33;44.35;;;18.35;;
25153;SDS011;47555;51.038;6.280;2023-11-21T03:23:59;33.08;;;15.82;;
25153;SDS011;47555;51.038;6.280;2023-11-21T03:26:25;40.22;;;18.10;;
25153;SDS011;47555;51.038;6.280;2023-11-21T03:28:51;40.10;;;18.02;;
25153;SDS011;47555;51.038;6.280;2023-11-21T03:31:18;32.85;;;15.63;;
25153;SDS011;47555;51.038;6.280;2023-11-21T03:33:45;39.80;;;17.30;;
25153;SDS011;47555;51.038;6.280;2023-11-21T03:36:12;37.60;;;16.38;;
25153;SDS011;47555;51.038;6.280;2023-11-21T03:38:39;35.45;;;15.45;;
25153;SDS011;47555;51.038;6.280;2023-11-21T03:41:06;36.65;;;16.23;;
25153;SDS011;47555;51.038;6.280;2023-11-21T03:43:33;38.17;;;16.17;;
25153;SDS011;47555;51.038;6.280;2023-11-21T03:45:59;30.63;;;16.35;;
25153;SDS011;47555;51.038;6.280;2023-11-21T03:48:25;35.05;;;15.30;;
25153;SDS011;47555;51.038;6.280;2023-11-21T03:50:51;35.22;;;15.10;;
25153;SDS011;47555;51.038;6.280;2023-11-21T03:53:17;32.85;;;14.80;;
25153;SDS011;47555;51.038;6.280;2023-11-21T03:55:42;30.73;;;15.48;;
25153;SDS011;47555;51.038;6.280;2023-11-21T03:58:08;32.83;;;15.50;;
25153;SDS011;47555;51.038;6.280;2023-11-21T04:00:34;33.67;;;15.50;;
25153;SDS011;47555;51.038;6.280;2023-11-21T04:03:00;28.15;;;14.40;;
25153;SDS011;47555;51.038;6.280;2023-11-21T04:05:27;32.70;;;15.32;;
25153;SDS011;47555;51.038;6.280;2023-11-21T04:07:53;32.67;;;15.38;;
25153;SDS011;47555;51.038;6.280;2023-11-21T04:10:19;29.20;;;14.27;;
25153;SDS011;47555;51.038;6.280;2023-11-21T04:12:45;34.42;;;15.75;;
25153;SDS011;47555;51.038;6.280;2023-11-21T04:15:11;29.88;;;15.57;;
25153;SDS011;47555;51.038;6.280;2023-11-21T04:17:38;31.38;;;15.23;;
25153;SDS011;47555;51.038;6.280;2023-11-21T04:20:05;34.85;;;15.60;;
25153;SDS011;47555;51.038;6.280;2023-11-21T04:22:41;29.83;;;13.85;;
25153;SDS011;47555;51.038;6.280;2023-11-21T04:25:11;28.27;;;14.27;;
25153;SDS011;47555;51.038;6.280;2023-11-21T04:27:39;29.17;;;14.60;;
25153;SDS011;47555;51.038;6.280;2023-11-21T04:30:05;26.50;;;14.77;;
25153;SDS011;47555;51.038;6.280;2023-11-21T04:32:31;33.88;;;16.38;;
25153;SDS011;47555;51.038;6.280;2023-11-21T04:34:57;33.13;;;17.08;;
25153;SDS011;47555;51.038;6.280;2023-11-21T04:37:23;30.88;;;15.98;;
25153;SDS011;47555;51.038;6.280;2023-11-21T04:39:49;29.67;;;15.05;;
25153;SDS011;47555;51.038;6.280;2023-11-21T04:42:15;28.67;;;14.55;;
25153;SDS011;47555;51.038;6.280;2023-11-21T04:44:41;30.80;;;14.93;;
25153;SDS011;47555;51.038;6.280;2023-11-21T04:47:09;33.45;;;16.45;;
25153;SDS011;47555;51.038;6.280;2023-11-21T04:49:35;33.50;;;16.40;;
25153;SDS011;47555;51.038;6.280;2023-11-21T04:52:00;30.77;;;14.82;;
25153;SDS011;47555;51.038;6.280;2023-11-21T04:54:28;28.80;;;13.73;;
25153;SDS011;47555;51.038;6.280;2023-11-21T04:56:55;28.55;;;13.95;;
25153;SDS011;47555;51.038;6.280;2023-11-21T04:59:21;31.70;;;14.52;;
25153;SDS011;47555;51.038;6.280;2023-11-21T05:01:50;29.17;;;15.45;;
25153;SDS011;47555;51.038;6.280;2023-11-21T05:04:15;33.92;;;16.08;;
25153;SDS011;47555;51.038;6.280;2023-11-21T05:06:41;35.03;;;16.17;;
25153;SDS011;47555;51.038;6.280;2023-11-21T05:09:09;39.60;;;18.60;;
25153;SDS011;47555;51.038;6.280;2023-11-21T05:11:37;32.40;;;14.50;;
25153;SDS011;47555;51.038;6.280;2023-11-21T05:14:04;29.83;;;14.63;;
25153;SDS011;47555;51.038;6.280;2023-11-21T05:16:30;37.83;;;15.73;;
25153;SDS011;47555;51.038;6.280;2023-11-21T05:18:56;32.95;;;15.77;;
25153;SDS011;47555;51.038;6.280;2023-11-21T05:21:26;38.80;;;15.73;;
25153;SDS011;47555;51.038;6.280;2023-11-21T05:23:52;31.27;;;14.80;;
25153;SDS011;47555;51.038;6.280;2023-11-21T05:26:18;32.33;;;13.77;;
25153;SDS011;47555;51.038;6.280;2023-11-21T05:28:44;31.95;;;15.10;;
25153;SDS011;47555;51.038;6.280;2023-11-21T05:31:10;33.17;;;15.38;;
25153;SDS011;47555;51.038;6.280;2023-11-21T05:33:36;30.20;;;14.18;;
25153;SDS011;47555;51.038;6.280;2023-11-21T05:36:02;40.55;;;16.45;;
25153;SDS011;47555;51.038;6.280;2023-11-21T05:38:28;33.50;;;15.75;;
25153;SDS011;47555;51.038;6.280;2023-11-21T05:40:54;34.17;;;14.50;;
25153;SDS011;47555;51.038;6.280;2023-11-21T05:43:20;33.15;;;14.50;;
25153;SDS011;47555;51.038;6.280;2023-11-21T05:45:46;33.55;;;14.55;;
25153;SDS011;47555;51.038;6.280;2023-11-21T05:48:12;31.33;;;13.93;;
25153;SDS011;47555;51.038;6.280;2023-11-21T05:50:38;31.55;;;14.55;;
25153;SDS011;47555;51.038;6.280;2023-11-21T05:53:04;31.92;;;15.20;;
25153;SDS011;47555;51.038;6.280;2023-11-21T05:55:30;29.67;;;14.15;;
25153;SDS011;47555;51.038;6.280;2023-11-21T05:57:56;35.25;;;15.75;;
25153;SDS011;47555;51.038;6.280;2023-11-21T06:00:22;32.90;;;14.45;;
25153;SDS011;47555;51.038;6.280;2023-11-21T06:02:50;31.27;;;14.18;;
25153;SDS011;47555;51.038;6.280;2023-11-21T06:05:17;32.97;;;15.27;;
25153;SDS011;47555;51.038;6.280;2023-11-21T06:07:43;29.13;;;13.52;;
25153;SDS011;47555;51.038;6.280;2023-11-21T06:10:10;34.63;;;14.25;;
25153;SDS011;47555;51.038;6.280;2023-11-21T06:12:39;33.58;;;13.32;;
25153;SDS011;47555;51.038;6.280;2023-11-21T06:15:07;33.67;;;14.73;;
25153;SDS011;47555;51.038;6.280;2023-11-21T06:17:36;34.88;;;13.70;;
25153;SDS011;47555;51.038;6.280;2023-11-21T06:20:06;34.15;;;13.90;;
25153;SDS011;47555;51.038;6.280;2023-11-21T06:22:39;33.83;;;14.05;;
25153;SDS011;47555;51.038;6.280;2023-11-21T06:25:06;34.25;;;14.82;;
25153;SDS011;47555;51.038;6.280;2023-11-21T06:27:33;32.97;;;13.73;;
25153;SDS011;47555;51.038;6.280;2023-11-21T06:29:59;34.78;;;15.18;;
25153;SDS011;47555;51.038;6.280;2023-11-21T06:32:25;33.03;;;13.45;;
25153;SDS011;47555;51.038;6.280;2023-11-21T06:34:52;28.05;;;13.55;;
25153;SDS011;47555;51.038;6.280;2023-11-21T06:37:21;40.25;;;15.88;;
25153;SDS011;47555;51.038;6.280;2023-11-21T06:39:48;40.60;;;15.23;;
25153;SDS011;47555;51.038;6.280;2023-11-21T06:42:17;40.05;;;14.88;;
25153;SDS011;47555;51.038;6.280;2023-11-21T06:44:44;39.03;;;14.55;;
25153;SDS011;47555;51.038;6.280;2023-11-21T06:47:10;42.85;;;14.55;;
25153;SDS011;47555;51.038;6.280;2023-11-21T06:49:36;42.42;;;15.63;;
25153;SDS011;47555;51.038;6.280;2023-11-21T06:52:03;35.83;;;13.93;;
25153;SDS011;47555;51.038;6.280;2023-11-21T06:54:30;46.13;;;15.70;;
25153;SDS011;47555;51.038;6.280;2023-11-21T06:56:57;54.28;;;16.48;;
25153;SDS011;47555;51.038;6.280;2023-11-21T06:59:23;54.05;;;15.82;;
25153;SDS011;47555;51.038;6.280;2023-11-21T07:01:49;52.20;;;18.23;;
25153;SDS011;47555;51.038;6.280;2023-11-21T07:04:15;52.45;;;16.75;;
25153;SDS011;47555;51.038;6.280;2023-11-21T07:06:41;57.65;;;16.90;;
25153;SDS011;47555;51.038;6.280;2023-11-21T07:09:08;53.30;;;18.42;;
25153;SDS011;47555;51.038;6.280;2023-11-21T07:11:37;62.08;;;17.27;;
25153;SDS011;47555;51.038;6.280;2023-11-21T07:14:03;59.40;;;18.80;;
25153;SDS011;47555;51.038;6.280;2023-11-21T07:16:35;56.55;;;18.17;;
25153;SDS011;47555;51.038;6.280;2023-11-21T07:19:04;55.95;;;18.70;;
25153;SDS011;47555;51.038;6.280;2023-11-21T07:21:31;61.13;;;18.05;;
25153;SDS011;47555;51.038;6.280;2023-11-21T07:23:58;55.88;;;16.45;;
25153;SDS011;47555;51.038;6.280;2023-11-21T07:26:27;67.57;;;19.23;;
25153;SDS011;47555;51.038;6.280;2023-11-21T07:28:53;65.28;;;20.25;;
25153;SDS011;47555;51.038;6.280;2023-11-21T07:31:19;60.58;;;16.85;;
25153;SDS011;47555;51.038;6.280;2023-11-21T07:33:45;56.13;;;16.55;;
25153;SDS011;47555;51.038;6.280;2023-11-21T07:36:15;58.35;;;16.27;;
25153;SDS011;47555;51.038;6.280;2023-11-21T07:38:43;66.15;;;17.38;;
25153;SDS011;47555;51.038;6.280;2023-11-21T07:41:10;57.47;;;17.67;;
25153;SDS011;47555;51.038;6.280;2023-11-21T07:43:36;58.90;;;16.88;;
25153;SDS011;47555;51.038;6.280;2023-11-21T07:46:02;65.57;;;17.90;;
25153;SDS011;47555;51.038;6.280;2023-11-21T07:48:29;54.72;;;15.75;;
25153;SDS011;47555;51.038;6.280;2023-11-21T07:50:55;65.13;;;16.90;;
25153;SDS011;47555;51.038;6.280;2023-11-21T07:53:22;63.00;;;17.73;;
25153;SDS011;47555;51.038;6.280;2023-11-21T07:55:48;65.85;;;17.73;;
25153;SDS011;47555;51.038;6.280;2023-11-21T07:58:14;54.53;;;16.05;;
25153;SDS011;47555;51.038;6.280;2023-11-21T08:00:40;63.05;;;16.60;;
25153;SDS011;47555;51.038;6.280;2023-11-21T08:03:07;67.65;;;15.35;;
25153;SDS011;47555;51.038;6.280;2023-11-21T08:05:33;59.35;;;14.70;;
25153;SDS011;47555;51.038;6.280;2023-11-21T08:07:59;65.53;;;16.52;;
25153;SDS011;47555;51.038;6.280;2023-11-21T08:10:26;64.18;;;16.42;;
25153;SDS011;47555;51.038;6.280;2023-11-21T08:12:52;64.32;;;17.50;;
25153;SDS011;47555;51.038;6.280;2023-11-21T08:15:18;63.15;;;15.68;;
25153;SDS011;47555;51.038;6.280;2023-11-21T08:17:45;57.70;;;15.23;;
25153;SDS011;47555;51.038;6.280;2023-11-21T08:20:11;61.53;;;15.35;;
25153;SDS011;47555;51.038;6.280;2023-11-21T08:22:37;65.68;;;14.55;;
25153;SDS011;47555;51.038;6.280;2023-11-21T08:25:06;62.35;;;15.40;;
25153;SDS011;47555;51.038;6.280;2023-11-21T08:27:32;56.38;;;15.73;;
25153;SDS011;47555;51.038;6.280;2023-11-21T08:29:59;64.22;;;15.77;;
25153;SDS011;47555;51.038;6.280;2023-11-21T08:32:25;66.63;;;15.98;;
25153;SDS011;47555;51.038;6.280;2023-11-21T08:34:51;58.25;;;13.73;;
25153;SDS011;47555;51.038;6.280;2023-11-21T08:37:17;58.05;;;15.10;;
25153;SDS011;47555;51.038;6.280;2023-11-21T08:39:44;54.40;;;14.52;;
25153;SDS011;47555;51.038;6.280;2023-11-21T08:42:10;57.85;;;14.55;;
25153;SDS011;47555;51.038;6.280;2023-11-21T08:44:36;60.25;;;15.98;;
25153;SDS011;47555;51.038;6.280;2023-11-21T08:47:03;55.78;;;14.38;;
25153;SDS011;47555;51.038;6.280;2023-11-21T08:49:29;65.20;;;17.90;;
25153;SDS011;47555;51.038;6.280;2023-11-21T08:51:55;62.72;;;17.48;;
25153;SDS011;47555;51.038;6.280;2023-11-21T08:54:24;57.22;;;16.92;;
25153;SDS011;47555;51.038;6.280;2023-11-21T08:56:50;61.75;;;16.30;;
25153;SDS011;47555;51.038;6.280;2023-11-21T08:59:16;73.53;;;17.88;;
25153;SDS011;47555;51.038;6.280;2023-11-21T09:01:42;71.07;;;16.67;;
25153;SDS011;47555;51.038;6.280;2023-11-21T09:04:08;73.80;;;19.60;;
25153;SDS011;47555;51.038;6.280;2023-11-21T09:06:34;64.75;;;17.08;;
25153;SDS011;47555;51.038;6.280;2023-11-21T09:09:00;69.75;;;17.48;;
25153;SDS011;47555;51.038;6.280;2023-11-21T09:11:26;64.10;;;17.40;;
25153;SDS011;47555;51.038;6.280;2023-11-21T09:13:58;63.40;;;17.35;;
25153;SDS011;47555;51.038;6.280;2023-11-21T09:16:24;60.83;;;16.80;;
25153;SDS011;47555;51.038;6.280;2023-11-21T09:18:50;53.72;;;16.27;;
25153;SDS011;47555;51.038;6.280;2023-11-21T09:21:16;54.38;;;16.35;;
25153;SDS011;47555;51.038;6.280;2023-11-21T09:23:43;56.47;;;17.67;;
25153;SDS011;47555;51.038;6.280;2023-11-21T09:26:09;46.03;;;13.90;;
25153;SDS011;47555;51.038;6.280;2023-11-21T09:28:35;55.33;;;15.18;;
25153;SDS011;47555;51.038;6.280;2023-11-21T09:31:04;51.78;;;16.10;;
25153;SDS011;47555;51.038;6.280;2023-11-21T09:33:30;62.17;;;16.65;;
25153;SDS011;47555;51.038;6.280;2023-11-21T09:35:56;49.40;;;14.13;;
25153;SDS011;47555;51.038;6.280;2023-11-21T09:38:22;57.05;;;14.68;;
25153;SDS011;47555;51.038;6.280;2023-11-21T09:40:48;47.88;;;15.45;;
25153;SDS011;47555;51.038;6.280;2023-11-21T09:43:18;55.08;;;17.05;;
25153;SDS011;47555;51.038;6.280;2023-11-21T09:45:47;57.38;;;15.43;;
25153;SDS011;47555;51.038;6.280;2023-11-21T09:48:15;50.22;;;16.00;;
25153;SDS011;47555;51.038;6.280;2023-11-21T09:50:42;61.03;;;17.63;;
25153;SDS011;47555;51.038;6.280;2023-11-21T09:53:18;61.88;;;16.67;;
25153;SDS011;47555;51.038;6.280;2023-11-21T09:55:47;54.85;;;16.08;;
25153;SDS011;47555;51.038;6.280;2023-11-21T09:58:13;42.17;;;15.05;;
25153;SDS011;47555;51.038;6.280;2023-11-21T10:00:40;49.25;;;14.98;;
25153;SDS011;47555;51.038;6.280;2023-11-21T10:03:06;56.03;;;16.85;;
25153;SDS011;47555;51.038;6.280;2023-11-21T10:05:32;54.33;;;15.98;;
25153;SDS011;47555;51.038;6.280;2023-11-21T10:07:59;50.00;;;15.20;;
25153;SDS011;47555;51.038;6.280;2023-11-21T10:10:25;54.08;;;17.02;;
25153;SDS011;47555;51.038;6.280;2023-11-21T10:12:55;48.67;;;15.27;;
25153;SDS011;47555;51.038;6.280;2023-11-21T10:15:22;51.97;;;17.25;;
25153;SDS011;47555;51.038;6.280;2023-11-21T10:17:50;57.85;;;16.70;;
25153;SDS011;47555;51.038;6.280;2023-11-21T10:20:18;50.30;;;18.10;;
25153;SDS011;47555;51.038;6.280;2023-11-21T10:22:44;58.85;;;17.27;;
25153;SDS011;47555;51.038;6.280;2023-11-21T10:25:11;59.92;;;17.83;;
25153;SDS011;47555;51.038;6.280;2023-11-21T10:27:39;52.15;;;18.35;;
25153;SDS011;47555;51.038;6.280;2023-11-21T10:30:06;52.42;;;16.20;;
25153;SDS011;47555;51.038;6.280;2023-11-21T10:32:33;52.55;;;16.10;;
25153;SDS011;47555;51.038;6.280;2023-11-21T10:34:59;53.15;;;17.67;;
25153;SDS011;47555;51.038;6.280;2023-11-21T10:37:27;57.00;;;17.63;;
25153;SDS011;47555;51.038;6.280;2023-11-21T10:39:57;52.30;;;16.42;;
25153;SDS011;47555;51.038;6.280;2023-11-21T10:42:23;51.78;;;16.27;;
25153;SDS011;47555;51.038;6.280;2023-11-21T10:44:49;55.33;;;16.40;;
25153;SDS011;47555;51.038;6.280;2023-11-21T10:47:15;50.50;;;16.75;;
25153;SDS011;47555;51.038;6.280;2023-11-21T10:49:43;49.28;;;16.83;;
25153;SDS011;47555;51.038;6.280;2023-11-21T10:52:12;51.80;;;17.52;;
25153;SDS011;47555;51.038;6.280;2023-11-21T10:54:42;48.90;;;16.50;;
25153;SDS011;47555;51.038;6.280;2023-11-21T10:57:08;47.35;;;15.10;;
25153;SDS011;47555;51.038;6.280;2023-11-21T10:59:35;54.03;;;17.23;;
25153;SDS011;47555;51.038;6.280;2023-11-21T11:02:02;52.55;;;16.25;;
25153;SDS011;47555;51.038;6.280;2023-11-21T11:04:33;52.47;;;17.77;;
25153;SDS011;47555;51.038;6.280;2023-11-21T11:07:03;49.78;;;17.75;;
25153;SDS011;47555;51.038;6.280;2023-11-21T11:09:29;49.63;;;16.42;;
25153;SDS011;47555;51.038;6.280;2023-11-21T11:11:57;44.90;;;17.33;;
25153;SDS011;47555;51.038;6.280;2023-11-21T11:14:24;47.38;;;14.85;;
25153;SDS011;47555;51.038;6.280;2023-11-21T11:16:52;41.83;;;15.68;;
25153;SDS011;47555;51.038;6.280;2023-11-21T11:19:19;46.63;;;15.73;;
25153;SDS011;47555;51.038;6.280;2023-11-21T11:27:13;38.92;;;15.57;;
25153;SDS011;47555;51.038;6.280;2023-11-21T11:29:44;43.75;;;16.77;;
25153;SDS011;47555;51.038;6.280;2023-11-21T11:32:18;47.97;;;15.93;;
25153;SDS011;47555;51.038;6.280;2023-11-21T11:34:50;48.58;;;16.27;;
25153;SDS011;47555;51.038;6.280;2023-11-21T11:37:19;44.78;;;16.85;;
25153;SDS011;47555;51.038;6.280;2023-11-21T11:39:45;35.30;;;14.68;;
25153;SDS011;47555;51.038;6.280;2023-11-21T11:42:12;35.03;;;14.25;;
25153;SDS011;47555;51.038;6.280;2023-11-21T11:47:30;45.80;;;15.93;;
25153;SDS011;47555;51.038;6.280;2023-11-21T11:50:05;41.15;;;14.63;;
25153;SDS011;47555;51.038;6.280;2023-11-21T11:52:33;33.53;;;13.40;;
25153;SDS011;47555;51.038;6.280;2023-11-21T11:55:00;33.85;;;14.05;;
25153;SDS011;47555;51.038;6.280;2023-11-21T11:57:26;33.35;;;12.82;;
25153;SDS011;47555;51.038;6.280;2023-11-21T12:00:08;33.75;;;12.95;;
25153;SDS011;47555;51.038;6.280;2023-11-21T12:02:41;37.20;;;14.18;;
25153;SDS011;47555;51.038;6.280;2023-11-21T12:05:08;35.15;;;13.55;;
25153;SDS011;47555;51.038;6.280;2023-11-21T12:07:41;34.92;;;12.68;;
25153;SDS011;47555;51.038;6.280;2023-11-21T12:10:07;29.92;;;12.75;;
25153;SDS011;47555;51.038;6.280;2023-11-21T12:12:36;29.85;;;11.57;;
25153;SDS011;47555;51.038;6.280;2023-11-21T12:15:03;28.42;;;12.70;;
25153;SDS011;47555;51.038;6.280;2023-11-21T12:17:30;34.58;;;12.43;;
25153;SDS011;47555;51.038;6.280;2023-11-21T12:20:05;33.88;;;15.05;;
25153;SDS011;47555;51.038;6.280;2023-11-21T12:22:39;32.83;;;13.27;;
25153;SDS011;47555;51.038;6.280;2023-11-21T12:25:06;31.13;;;12.38;;
25153;SDS011;47555;51.038;6.280;2023-11-21T12:27:32;34.35;;;13.70;;
25153;SDS011;47555;51.038;6.280;2023-11-21T12:29:58;28.45;;;13.10;;
25153;SDS011;47555;51.038;6.280;2023-11-21T12:32:24;27.92;;;11.07;;
25153;SDS011;47555;51.038;6.280;2023-11-21T12:34:50;33.03;;;12.63;;
25153;SDS011;47555;51.038;6.280;2023-11-21T12:37:16;35.05;;;13.65;;
25153;SDS011;47555;51.038;6.280;2023-11-21T12:39:42;31.55;;;12.23;;
25153;SDS011;47555;51.038;6.280;2023-11-21T12:42:08;34.10;;;12.98;;
25153;SDS011;47555;51.038;6.280;2023-11-21T12:44:35;32.60;;;12.93;;
25153;SDS011;47555;51.038;6.280;2023-11-21T12:47:05;30.48;;;12.32;;
25153;SDS011;47555;51.038;6.280;2023-11-21T12:49:31;31.33;;;12.13;;
25153;SDS011;47555;51.038;6.280;2023-11-21T12:51:59;31.35;;;13.77;;
25153;SDS011;47555;51.038;6.280;2023-11-21T12:54:25;31.77;;;13.13;;
25153;SDS011;47555;51.038;6.280;2023-11-21T12:56:50;29.73;;;11.07;;
25153;SDS011;47555;51.038;6.280;2023-11-21T12:59:17;23.95;;;9.20;;
25153;SDS011;47555;51.038;6.280;2023-11-21T13:01:43;25.73;;;10.27;;
25153;SDS011;47555;51.038;6.280;2023-11-21T13:04:11;28.52;;;10.90;;
25153;SDS011;47555;51.038;6.280;2023-11-21T13:06:37;24.60;;;10.90;;
25153;SDS011;47555;51.038;6.280;2023-11-21T13:09:06;28.38;;;9.52;;
25153;SDS011;47555;51.038;6.280;2023-11-21T13:11:35;26.08;;;9.52;;
25153;SDS011;47555;51.038;6.280;2023-11-21T13:14:01;23.45;;;10.02;;
25153;SDS011;47555;51.038;6.280;2023-11-21T13:16:28;28.70;;;10.32;;
25153;SDS011;47555;51.038;6.280;2023-11-21T13:18:55;27.20;;;10.35;;
25153;SDS011;47555;51.038;6.280;2023-11-21T13:21:21;30.75;;;11.13;;
25153;SDS011;47555;51.038;6.280;2023-11-21T13:23:47;24.15;;;10.75;;
25153;SDS011;47555;51.038;6.280;2023-11-21T13:26:15;23.60;;;9.35;;
25153;SDS011;47555;51.038;6.280;2023-11-21T13:28:42;28.13;;;10.45;;
25153;SDS011;47555;51.038;6.280;2023-11-21T13:31:12;25.35;;;9.75;;
25153;SDS011;47555;51.038;6.280;2023-11-21T13:33:57;27.98;;;9.13;;
25153;SDS011;47555;51.038;6.280;2023-11-21T13:36:30;18.88;;;8.43;;
25153;SDS011;47555;51.038;6.280;2023-11-21T13:38:58;27.70;;;8.90;;
25153;SDS011;47555;51.038;6.280;2023-11-21T13:41:29;25.33;;;9.60;;
25153;SDS011;47555;51.038;6.280;2023-11-21T13:43:58;26.98;;;8.80;;
25153;SDS011;47555;51.038;6.280;2023-11-21T13:46:39;27.08;;;9.13;;
25153;SDS011;47555;51.038;6.280;2023-11-21T13:49:06;24.55;;;8.52;;
25153;SDS011;47555;51.038;6.280;2023-11-21T13:51:35;27.73;;;9.95;;
25153;SDS011;47555;51.038;6.280;2023-11-21T13:54:09;29.55;;;9.68;;
25153;SDS011;47555;51.038;6.280;2023-11-21T13:56:35;21.25;;;8.55;;
25153;SDS011;47555;51.038;6.280;2023-11-21T13:59:02;26.02;;;9.30;;
25153;SDS011;47555;51.038;6.280;2023-11-21T14:01:50;27.83;;;10.05;;
25153;SDS011;47555;51.038;6.280;2023-11-21T14:04:22;27.08;;;10.02;;
25153;SDS011;47555;51.038;6.280;2023-11-21T14:06:57;28.10;;;9.50;;
25153;SDS011;47555;51.038;6.280;2023-11-21T14:09:25;29.45;;;9.93;;
25153;SDS011;47555;51.038;6.280;2023-11-21T14:14:25;28.42;;;9.90;;
25153;SDS011;47555;51.038;6.280;2023-11-21T14:16:51;25.70;;;10.65;;
25153;SDS011;47555;51.038;6.280;2023-11-21T14:19:17;25.25;;;9.63;;
25153;SDS011;47555;51.038;6.280;2023-11-21T14:21:44;24.75;;;8.60;;
25153;SDS011;47555;51.038;6.280;2023-11-21T14:24:13;29.65;;;11.10;;
25153;SDS011;47555;51.038;6.280;2023-11-21T14:26:40;26.30;;;10.27;;
25153;SDS011;47555;51.038;6.280;2023-11-21T14:29:07;26.33;;;9.50;;
25153;SDS011;47555;51.038;6.280;2023-11-21T14:31:33;22.58;;;9.82;;
25153;SDS011;47555;51.038;6.280;2023-11-21T14:33:59;26.98;;;10.93;;